sensor_id;sensor_type;location;lat;lon;timestamp;P1;durP1;ratioP1;P2;durP2;ratioP2
7444;SDS011;3764;48.126;11.594;2023-07-13T00:01:52;4.03;;;3.63;;
7444;SDS011;3764;48.126;11.594;2023-07-13T00:04:19;4.18;;;3.50;;
7444;SDS011;3764;48.126;11.594;2023-07-13T00:06:50;7.47;;;3.65;;
7444;SDS011;3764;48.126;11.594;2023-07-13T00:09:18;4.63;;;3.90;;
7444;SDS011;3764;48.126;11.594;2023-07-13T00:11:49;4.05;;;3.65;;
7444;SDS011;3764;48.126;11.594;2023-07-13T00:14:17;3.60;;;3.30;;
7444;SDS011;3764;48.126;11.594;2023-07-13T00:16:44;6.70;;;4.13;;
7444;SDS011;3764;48.126;11.594;2023-07-13T00:19:12;5.67;;;3.67;;
7444;SDS011;3764;48.126;11.594;2023-07-13T00:21:40;4.97;;;3.37;;
7444;SDS011;3764;48.126;11.594;2023-07-13T00:24:08;4.63;;;3.65;;
7444;SDS011;3764;48.126;11.594;2023-07-13T00:26:39;3.40;;;3.10;;
7444;SDS011;3764;48.126;11.594;2023-07-13T00:29:07;4.90;;;3.05;;
7444;SDS011;3764;48.126;11.594;2023-07-13T00:31:34;3.27;;;2.97;;
7444;SDS011;3764;48.126;11.594;2023-07-13T00:34:02;3.67;;;3.38;;
7444;SDS011;3764;48.126;11.594;2023-07-13T00:36:29;3.65;;;3.03;;
7444;SDS011;3764;48.126;11.594;2023-07-13T00:38:57;4.80;;;3.60;;
7444;SDS011;3764;48.126;11.594;2023-07-13T00:41:24;6.25;;;3.80;;
7444;SDS011;3764;48.126;11.594;2023-07-13T00:43:52;3.47;;;3.17;;
7444;SDS011;3764;48.126;11.594;2023-07-13T00:46:22;4.73;;;3.73;;
7444;SDS011;3764;48.126;11.594;2023-07-13T00:48:51;3.85;;;3.00;;
7444;SDS011;3764;48.126;11.594;2023-07-13T00:51:25;3.30;;;3.00;;
7444;SDS011;3764;48.126;11.594;2023-07-13T00:53:57;3.92;;;3.53;;
7444;SDS011;3764;48.126;11.594;2023-07-13T00:56:25;3.50;;;2.90;;
7444;SDS011;3764;48.126;11.594;2023-07-13T00:58:53;4.20;;;3.03;;
7444;SDS011;3764;48.126;11.594;2023-07-13T01:01:23;4.28;;;3.05;;
7444;SDS011;3764;48.126;11.594;2023-07-13T01:03:50;5.00;;;3.67;;
7444;SDS011;3764;48.126;11.594;2023-07-13T01:06:17;4.65;;;3.30;;
7444;SDS011;3764;48.126;11.594;2023-07-13T01:08:44;4.15;;;3.08;;
7444;SDS011;3764;48.126;11.594;2023-07-13T01:11:11;4.00;;;3.08;;
7444;SDS011;3764;48.126;11.594;2023-07-13T01:13:44;4.53;;;3.22;;
7444;SDS011;3764;48.126;11.594;2023-07-13T01:16:13;4.65;;;3.30;;
7444;SDS011;3764;48.126;11.594;2023-07-13T01:18:47;3.95;;;3.10;;
7444;SDS011;3764;48.126;11.594;2023-07-13T01:21:15;5.03;;;3.30;;
7444;SDS011;3764;48.126;11.594;2023-07-13T01:23:44;3.20;;;2.90;;
7444;SDS011;3764;48.126;11.594;2023-07-13T01:26:11;3.85;;;2.95;;
7444;SDS011;3764;48.126;11.594;2023-07-13T01:28:39;3.45;;;2.90;;
7444;SDS011;3764;48.126;11.594;2023-07-13T01:31:06;6.32;;;3.25;;
7444;SDS011;3764;48.126;11.594;2023-07-13T01:33:33;3.88;;;3.00;;
7444;SDS011;3764;48.126;11.594;2023-07-13T01:36:02;3.83;;;2.85;;
7444;SDS011;3764;48.126;11.594;2023-07-13T01:38:33;5.72;;;3.20;;
7444;SDS011;3764;48.126;11.594;2023-07-13T01:41:01;6.00;;;3.22;;
7444;SDS011;3764;48.126;11.594;2023-07-13T01:43:28;4.55;;;3.25;;
7444;SDS011;3764;48.126;11.594;2023-07-13T01:45:55;4.30;;;2.83;;
7444;SDS011;3764;48.126;11.594;2023-07-13T01:48:23;4.00;;;3.58;;
7444;SDS011;3764;48.126;11.594;2023-07-13T01:50:50;4.18;;;3.10;;
7444;SDS011;3764;48.126;11.594;2023-07-13T01:53:17;6.93;;;3.40;;
7444;SDS011;3764;48.126;11.594;2023-07-13T01:55:45;4.90;;;3.42;;
7444;SDS011;3764;48.126;11.594;2023-07-13T01:58:12;6.70;;;2.95;;
7444;SDS011;3764;48.126;11.594;2023-07-13T02:00:39;4.18;;;2.95;;
7444;SDS011;3764;48.126;11.594;2023-07-13T02:03:06;7.23;;;2.80;;
7444;SDS011;3764;48.126;11.594;2023-07-13T02:05:35;4.07;;;3.23;;
7444;SDS011;3764;48.126;11.594;2023-07-13T02:08:03;6.93;;;3.53;;
7444;SDS011;3764;48.126;11.594;2023-07-13T02:10:30;3.50;;;2.50;;
7444;SDS011;3764;48.126;11.594;2023-07-13T02:12:58;5.90;;;2.93;;
7444;SDS011;3764;48.126;11.594;2023-07-13T02:15:25;5.87;;;3.50;;
7444;SDS011;3764;48.126;11.594;2023-07-13T02:17:52;4.00;;;3.47;;
7444;SDS011;3764;48.126;11.594;2023-07-13T02:20:19;3.47;;;3.17;;
7444;SDS011;3764;48.126;11.594;2023-07-13T02:22:47;4.33;;;3.63;;
7444;SDS011;3764;48.126;11.594;2023-07-13T02:25:14;3.27;;;2.97;;
7444;SDS011;3764;48.126;11.594;2023-07-13T02:27:41;3.60;;;3.30;;
7444;SDS011;3764;48.126;11.594;2023-07-13T02:30:09;4.13;;;2.90;;
7444;SDS011;3764;48.126;11.594;2023-07-13T02:32:37;4.73;;;3.20;;
7444;SDS011;3764;48.126;11.594;2023-07-13T02:35:04;3.40;;;3.10;;
7444;SDS011;3764;48.126;11.594;2023-07-13T02:37:32;5.80;;;3.30;;
7444;SDS011;3764;48.126;11.594;2023-07-13T02:39:59;4.13;;;3.70;;
7444;SDS011;3764;48.126;11.594;2023-07-13T02:42:26;5.73;;;3.80;;
7444;SDS011;3764;48.126;11.594;2023-07-13T02:44:53;3.63;;;3.30;;
7444;SDS011;3764;48.126;11.594;2023-07-13T02:47:21;4.10;;;3.20;;
7444;SDS011;3764;48.126;11.594;2023-07-13T02:49:49;3.97;;;3.40;;
7444;SDS011;3764;48.126;11.594;2023-07-13T02:52:16;4.07;;;3.67;;
7444;SDS011;3764;48.126;11.594;2023-07-13T02:54:43;9.87;;;4.27;;
7444;SDS011;3764;48.126;11.594;2023-07-13T02:57:10;4.60;;;3.90;;
7444;SDS011;3764;48.126;11.594;2023-07-13T02:59:37;4.30;;;3.90;;
7444;SDS011;3764;48.126;11.594;2023-07-13T03:02:04;6.30;;;4.90;;
7444;SDS011;3764;48.126;11.594;2023-07-13T03:04:32;5.90;;;4.63;;
7444;SDS011;3764;48.126;11.594;2023-07-13T03:07:01;5.87;;;4.47;;
7444;SDS011;3764;48.126;11.594;2023-07-13T03:09:28;5.67;;;4.40;;
7444;SDS011;3764;48.126;11.594;2023-07-13T03:11:56;6.67;;;3.80;;
7444;SDS011;3764;48.126;11.594;2023-07-13T03:14:23;7.00;;;3.70;;
7444;SDS011;3764;48.126;11.594;2023-07-13T03:16:50;6.57;;;4.27;;
7444;SDS011;3764;48.126;11.594;2023-07-13T03:19:18;5.43;;;4.47;;
7444;SDS011;3764;48.126;11.594;2023-07-13T03:21:47;5.60;;;4.27;;
7444;SDS011;3764;48.126;11.594;2023-07-13T03:24:14;6.23;;;3.70;;
7444;SDS011;3764;48.126;11.594;2023-07-13T03:26:41;8.00;;;3.90;;
7444;SDS011;3764;48.126;11.594;2023-07-13T03:29:08;5.00;;;3.87;;
7444;SDS011;3764;48.126;11.594;2023-07-13T03:31:36;7.00;;;3.67;;
7444;SDS011;3764;48.126;11.594;2023-07-13T03:34:03;5.10;;;3.50;;
7444;SDS011;3764;48.126;11.594;2023-07-13T03:36:31;8.67;;;4.03;;
7444;SDS011;3764;48.126;11.594;2023-07-13T03:39:01;4.68;;;3.40;;
7444;SDS011;3764;48.126;11.594;2023-07-13T03:41:29;3.90;;;3.33;;
7444;SDS011;3764;48.126;11.594;2023-07-13T03:43:57;3.93;;;3.30;;
7444;SDS011;3764;48.126;11.594;2023-07-13T03:46:24;4.83;;;3.63;;
7444;SDS011;3764;48.126;11.594;2023-07-13T03:48:51;3.80;;;3.00;;
7444;SDS011;3764;48.126;11.594;2023-07-13T03:51:18;3.67;;;3.27;;
7444;SDS011;3764;48.126;11.594;2023-07-13T03:53:46;3.80;;;3.03;;
7444;SDS011;3764;48.126;11.594;2023-07-13T03:56:15;4.63;;;3.80;;
7444;SDS011;3764;48.126;11.594;2023-07-13T03:58:44;4.10;;;3.70;;
7444;SDS011;3764;48.126;11.594;2023-07-13T04:01:13;5.10;;;3.80;;
7444;SDS011;3764;48.126;11.594;2023-07-13T04:03:41;4.13;;;3.73;;
7444;SDS011;3764;48.126;11.594;2023-07-13T04:06:12;4.07;;;3.58;;
7444;SDS011;3764;48.126;11.594;2023-07-13T04:08:46;6.40;;;4.00;;
7444;SDS011;3764;48.126;11.594;2023-07-13T04:11:16;5.10;;;4.40;;
7444;SDS011;3764;48.126;11.594;2023-07-13T04:13:44;4.10;;;3.60;;
7444;SDS011;3764;48.126;11.594;2023-07-13T04:16:11;4.20;;;3.72;;
7444;SDS011;3764;48.126;11.594;2023-07-13T04:18:38;5.82;;;3.60;;
7444;SDS011;3764;48.126;11.594;2023-07-13T04:21:06;4.60;;;3.60;;
7444;SDS011;3764;48.126;11.594;2023-07-13T04:23:34;5.28;;;3.55;;
7444;SDS011;3764;48.126;11.594;2023-07-13T04:26:02;8.27;;;4.28;;
7444;SDS011;3764;48.126;11.594;2023-07-13T04:28:30;4.20;;;3.50;;
7444;SDS011;3764;48.126;11.594;2023-07-13T04:30:57;3.95;;;3.40;;
7444;SDS011;3764;48.126;11.594;2023-07-13T04:33:26;6.55;;;3.15;;
7444;SDS011;3764;48.126;11.594;2023-07-13T04:35:54;4.75;;;3.53;;
7444;SDS011;3764;48.126;11.594;2023-07-13T04:38:22;6.82;;;3.60;;
7444;SDS011;3764;48.126;11.594;2023-07-13T04:40:53;6.22;;;4.05;;
7444;SDS011;3764;48.126;11.594;2023-07-13T04:43:21;5.38;;;3.00;;
7444;SDS011;3764;48.126;11.594;2023-07-13T04:45:51;4.75;;;3.63;;
7444;SDS011;3764;48.126;11.594;2023-07-13T04:48:18;5.25;;;3.28;;
7444;SDS011;3764;48.126;11.594;2023-07-13T04:50:46;4.68;;;3.92;;
7444;SDS011;3764;48.126;11.594;2023-07-13T04:53:15;3.70;;;3.03;;
7444;SDS011;3764;48.126;11.594;2023-07-13T04:55:42;5.65;;;3.65;;
7444;SDS011;3764;48.126;11.594;2023-07-13T04:58:09;5.15;;;3.10;;
7444;SDS011;3764;48.126;11.594;2023-07-13T05:00:36;4.85;;;3.80;;
7444;SDS011;3764;48.126;11.594;2023-07-13T05:03:04;4.03;;;3.05;;
7444;SDS011;3764;48.126;11.594;2023-07-13T05:05:30;6.18;;;3.17;;
7444;SDS011;3764;48.126;11.594;2023-07-13T05:07:59;3.80;;;3.30;;
7444;SDS011;3764;48.126;11.594;2023-07-13T05:10:26;7.43;;;3.78;;
7444;SDS011;3764;48.126;11.594;2023-07-13T05:12:53;5.15;;;3.80;;
7444;SDS011;3764;48.126;11.594;2023-07-13T05:15:20;7.70;;;3.33;;
7444;SDS011;3764;48.126;11.594;2023-07-13T05:17:48;3.67;;;3.00;;
7444;SDS011;3764;48.126;11.594;2023-07-13T05:20:18;4.68;;;3.30;;
7444;SDS011;3764;48.126;11.594;2023-07-13T05:22:45;5.75;;;3.70;;
7444;SDS011;3764;48.126;11.594;2023-07-13T05:25:13;6.47;;;3.83;;
7444;SDS011;3764;48.126;11.594;2023-07-13T05:27:40;3.72;;;3.25;;
7444;SDS011;3764;48.126;11.594;2023-07-13T05:30:07;4.07;;;3.50;;
7444;SDS011;3764;48.126;11.594;2023-07-13T05:32:37;4.60;;;3.55;;
7444;SDS011;3764;48.126;11.594;2023-07-13T05:35:04;3.65;;;3.35;;
7444;SDS011;3764;48.126;11.594;2023-07-13T05:37:33;5.43;;;4.32;;
7444;SDS011;3764;48.126;11.594;2023-07-13T05:40:01;5.30;;;4.30;;
7444;SDS011;3764;48.126;11.594;2023-07-13T05:42:28;5.00;;;4.22;;
7444;SDS011;3764;48.126;11.594;2023-07-13T05:44:56;5.32;;;4.15;;
7444;SDS011;3764;48.126;11.594;2023-07-13T05:47:23;6.93;;;5.20;;
7444;SDS011;3764;48.126;11.594;2023-07-13T05:49:50;4.83;;;3.83;;
7444;SDS011;3764;48.126;11.594;2023-07-13T05:52:17;4.83;;;3.63;;
7444;SDS011;3764;48.126;11.594;2023-07-13T05:54:45;5.37;;;3.87;;
7444;SDS011;3764;48.126;11.594;2023-07-13T05:57:12;4.67;;;3.60;;
7444;SDS011;3764;48.126;11.594;2023-07-13T05:59:40;6.77;;;4.30;;
7444;SDS011;3764;48.126;11.594;2023-07-13T06:02:08;3.47;;;3.17;;
7444;SDS011;3764;48.126;11.594;2023-07-13T06:04:36;5.83;;;4.10;;
7444;SDS011;3764;48.126;11.594;2023-07-13T06:07:03;4.73;;;3.70;;
7444;SDS011;3764;48.126;11.594;2023-07-13T06:09:31;5.27;;;4.17;;
7444;SDS011;3764;48.126;11.594;2023-07-13T06:11:59;8.03;;;4.20;;
7444;SDS011;3764;48.126;11.594;2023-07-13T06:14:26;5.43;;;3.27;;
7444;SDS011;3764;48.126;11.594;2023-07-13T06:16:53;4.00;;;3.40;;
7444;SDS011;3764;48.126;11.594;2023-07-13T06:19:20;4.28;;;3.47;;
7444;SDS011;3764;48.126;11.594;2023-07-13T06:21:47;5.93;;;4.40;;
7444;SDS011;3764;48.126;11.594;2023-07-13T06:24:14;6.53;;;3.70;;
7444;SDS011;3764;48.126;11.594;2023-07-13T06:26:41;5.73;;;3.87;;
7444;SDS011;3764;48.126;11.594;2023-07-13T06:29:10;6.07;;;3.90;;
7444;SDS011;3764;48.126;11.594;2023-07-13T06:31:37;4.13;;;3.60;;
7444;SDS011;3764;48.126;11.594;2023-07-13T06:34:04;4.37;;;3.67;;
7444;SDS011;3764;48.126;11.594;2023-07-13T06:36:31;5.18;;;3.53;;
7444;SDS011;3764;48.126;11.594;2023-07-13T06:38:58;4.25;;;3.30;;
7444;SDS011;3764;48.126;11.594;2023-07-13T06:41:25;4.85;;;3.25;;
7444;SDS011;3764;48.126;11.594;2023-07-13T06:43:52;3.58;;;3.08;;
7444;SDS011;3764;48.126;11.594;2023-07-13T06:46:23;8.43;;;3.77;;
7444;SDS011;3764;48.126;11.594;2023-07-13T06:48:50;4.90;;;3.92;;
7444;SDS011;3764;48.126;11.594;2023-07-13T06:51:17;9.75;;;4.35;;
7444;SDS011;3764;48.126;11.594;2023-07-13T06:53:44;3.95;;;3.20;;
7444;SDS011;3764;48.126;11.594;2023-07-13T06:56:11;5.82;;;3.55;;
7444;SDS011;3764;48.126;11.594;2023-07-13T06:58:38;7.80;;;4.10;;
7444;SDS011;3764;48.126;11.594;2023-07-13T07:01:05;6.78;;;3.78;;
7444;SDS011;3764;48.126;11.594;2023-07-13T07:03:34;5.72;;;3.00;;
7444;SDS011;3764;48.126;11.594;2023-07-13T07:06:01;5.90;;;5.05;;
7444;SDS011;3764;48.126;11.594;2023-07-13T07:08:33;4.53;;;3.45;;
7444;SDS011;3764;48.126;11.594;2023-07-13T07:11:00;5.30;;;3.65;;
7444;SDS011;3764;48.126;11.594;2023-07-13T07:13:27;4.30;;;3.90;;
7444;SDS011;3764;48.126;11.594;2023-07-13T07:15:55;5.15;;;3.72;;
7444;SDS011;3764;48.126;11.594;2023-07-13T07:18:22;4.68;;;3.80;;
7444;SDS011;3764;48.126;11.594;2023-07-13T07:20:50;4.25;;;3.22;;
7444;SDS011;3764;48.126;11.594;2023-07-13T07:23:18;4.13;;;3.03;;
7444;SDS011;3764;48.126;11.594;2023-07-13T07:25:45;5.45;;;3.20;;
7444;SDS011;3764;48.126;11.594;2023-07-13T07:28:14;4.63;;;3.53;;
7444;SDS011;3764;48.126;11.594;2023-07-13T07:30:43;5.90;;;4.90;;
7444;SDS011;3764;48.126;11.594;2023-07-13T07:33:10;6.17;;;4.63;;
7444;SDS011;3764;48.126;11.594;2023-07-13T07:35:37;7.47;;;4.00;;
7444;SDS011;3764;48.126;11.594;2023-07-13T07:38:06;7.30;;;3.13;;
7444;SDS011;3764;48.126;11.594;2023-07-13T07:40:36;3.80;;;3.47;;
7444;SDS011;3764;48.126;11.594;2023-07-13T07:43:03;5.50;;;3.50;;
7444;SDS011;3764;48.126;11.594;2023-07-13T07:45:30;15.23;;;3.17;;
7444;SDS011;3764;48.126;11.594;2023-07-13T07:47:57;7.95;;;3.75;;
7444;SDS011;3764;48.126;11.594;2023-07-13T07:50:25;3.63;;;2.70;;
7444;SDS011;3764;48.126;11.594;2023-07-13T07:52:52;8.18;;;3.50;;
7444;SDS011;3764;48.126;11.594;2023-07-13T07:55:22;4.50;;;3.00;;
7444;SDS011;3764;48.126;11.594;2023-07-13T07:57:50;4.20;;;3.47;;
7444;SDS011;3764;48.126;11.594;2023-07-13T08:00:17;6.53;;;3.63;;
7444;SDS011;3764;48.126;11.594;2023-07-13T08:02:45;4.00;;;3.65;;
7444;SDS011;3764;48.126;11.594;2023-07-13T08:05:12;3.38;;;2.95;;
7444;SDS011;3764;48.126;11.594;2023-07-13T08:07:39;3.60;;;2.70;;
7444;SDS011;3764;48.126;11.594;2023-07-13T08:10:07;5.27;;;3.57;;
7444;SDS011;3764;48.126;11.594;2023-07-13T08:12:36;5.73;;;3.67;;
7444;SDS011;3764;48.126;11.594;2023-07-13T08:15:05;8.10;;;3.80;;
7444;SDS011;3764;48.126;11.594;2023-07-13T08:17:35;5.63;;;2.85;;
7444;SDS011;3764;48.126;11.594;2023-07-13T08:20:02;3.97;;;3.20;;
7444;SDS011;3764;48.126;11.594;2023-07-13T08:22:30;11.60;;;8.68;;
7444;SDS011;3764;48.126;11.594;2023-07-13T08:24:58;9.93;;;5.00;;
7444;SDS011;3764;48.126;11.594;2023-07-13T08:27:26;5.57;;;3.08;;
7444;SDS011;3764;48.126;11.594;2023-07-13T08:29:55;5.63;;;3.53;;
7444;SDS011;3764;48.126;11.594;2023-07-13T08:32:23;5.13;;;3.00;;
7444;SDS011;3764;48.126;11.594;2023-07-13T08:34:50;3.07;;;2.23;;
7444;SDS011;3764;48.126;11.594;2023-07-13T08:37:18;4.60;;;2.63;;
7444;SDS011;3764;48.126;11.594;2023-07-13T08:39:45;3.90;;;2.97;;
7444;SDS011;3764;48.126;11.594;2023-07-13T08:42:16;4.97;;;2.83;;
7444;SDS011;3764;48.126;11.594;2023-07-13T08:45:00;3.42;;;3.13;;
7444;SDS011;3764;48.126;11.594;2023-07-13T08:47:37;10.47;;;3.17;;
7444;SDS011;3764;48.126;11.594;2023-07-13T08:50:10;2.17;;;1.90;;
7444;SDS011;3764;48.126;11.594;2023-07-13T08:52:40;2.90;;;2.60;;
7444;SDS011;3764;48.126;11.594;2023-07-13T08:55:12;2.97;;;2.40;;
7444;SDS011;3764;48.126;11.594;2023-07-13T08:57:43;4.87;;;3.33;;
7444;SDS011;3764;48.126;11.594;2023-07-13T09:00:14;4.60;;;2.30;;
7444;SDS011;3764;48.126;11.594;2023-07-13T09:02:42;4.33;;;3.10;;
7444;SDS011;3764;48.126;11.594;2023-07-13T09:05:14;6.53;;;2.40;;
7444;SDS011;3764;48.126;11.594;2023-07-13T09:07:49;3.60;;;2.70;;
7444;SDS011;3764;48.126;11.594;2023-07-13T09:10:40;6.10;;;2.70;;
7444;SDS011;3764;48.126;11.594;2023-07-13T09:13:14;7.70;;;3.13;;
7444;SDS011;3764;48.126;11.594;2023-07-13T09:15:50;3.80;;;2.50;;
7444;SDS011;3764;48.126;11.594;2023-07-13T09:18:19;2.13;;;1.93;;
7444;SDS011;3764;48.126;11.594;2023-07-13T09:20:52;6.78;;;2.30;;
7444;SDS011;3764;48.126;11.594;2023-07-13T09:23:24;4.00;;;2.80;;
7444;SDS011;3764;48.126;11.594;2023-07-13T09:25:55;4.20;;;2.80;;
7444;SDS011;3764;48.126;11.594;2023-07-13T09:28:29;3.27;;;2.87;;
7444;SDS011;3764;48.126;11.594;2023-07-13T09:31:03;6.15;;;3.17;;
7444;SDS011;3764;48.126;11.594;2023-07-13T09:33:33;3.80;;;2.13;;
7444;SDS011;3764;48.126;11.594;2023-07-13T09:36:00;4.23;;;2.83;;
7444;SDS011;3764;48.126;11.594;2023-07-13T09:38:28;4.97;;;2.65;;
7444;SDS011;3764;48.126;11.594;2023-07-13T09:41:00;2.60;;;2.20;;
7444;SDS011;3764;48.126;11.594;2023-07-13T09:44:00;3.67;;;2.00;;
7444;SDS011;3764;48.126;11.594;2023-07-13T09:46:35;5.23;;;2.67;;
7444;SDS011;3764;48.126;11.594;2023-07-13T09:49:03;3.20;;;2.10;;
7444;SDS011;3764;48.126;11.594;2023-07-13T09:51:30;2.97;;;2.30;;
7444;SDS011;3764;48.126;11.594;2023-07-13T09:53:58;2.40;;;2.13;;
7444;SDS011;3764;48.126;11.594;2023-07-13T09:56:28;7.77;;;2.80;;
7444;SDS011;3764;48.126;11.594;2023-07-13T09:58:56;6.50;;;2.50;;
7444;SDS011;3764;48.126;11.594;2023-07-13T10:01:33;4.93;;;2.33;;
7444;SDS011;3764;48.126;11.594;2023-07-13T10:04:10;3.63;;;2.27;;
7444;SDS011;3764;48.126;11.594;2023-07-13T10:06:39;4.17;;;2.47;;
7444;SDS011;3764;48.126;11.594;2023-07-13T10:09:08;4.17;;;2.67;;
7444;SDS011;3764;48.126;11.594;2023-07-13T10:11:36;3.80;;;2.80;;
7444;SDS011;3764;48.126;11.594;2023-07-13T10:14:10;4.03;;;2.53;;
7444;SDS011;3764;48.126;11.594;2023-07-13T10:16:42;4.37;;;2.27;;
7444;SDS011;3764;48.126;11.594;2023-07-13T10:19:12;5.40;;;2.27;;
7444;SDS011;3764;48.126;11.594;2023-07-13T10:21:50;3.90;;;2.20;;
7444;SDS011;3764;48.126;11.594;2023-07-13T10:24:20;5.57;;;2.57;;
7444;SDS011;3764;48.126;11.594;2023-07-13T10:26:51;3.90;;;2.27;;
7444;SDS011;3764;48.126;11.594;2023-07-13T10:29:23;4.97;;;2.20;;
7444;SDS011;3764;48.126;11.594;2023-07-13T10:31:55;4.03;;;2.00;;
7444;SDS011;3764;48.126;11.594;2023-07-13T10:34:23;2.57;;;1.97;;
7444;SDS011;3764;48.126;11.594;2023-07-13T10:36:51;2.43;;;2.10;;
7444;SDS011;3764;48.126;11.594;2023-07-13T10:39:19;3.23;;;2.10;;
7444;SDS011;3764;48.126;11.594;2023-07-13T10:41:49;4.93;;;1.87;;
7444;SDS011;3764;48.126;11.594;2023-07-13T10:44:21;2.80;;;1.70;;
7444;SDS011;3764;48.126;11.594;2023-07-13T10:46:51;5.03;;;2.23;;
7444;SDS011;3764;48.126;11.594;2023-07-13T10:49:22;5.30;;;2.60;;
7444;SDS011;3764;48.126;11.594;2023-07-13T10:51:50;5.07;;;2.57;;
7444;SDS011;3764;48.126;11.594;2023-07-13T10:54:19;4.07;;;2.20;;
7444;SDS011;3764;48.126;11.594;2023-07-13T10:56:54;5.07;;;1.80;;
7444;SDS011;3764;48.126;11.594;2023-07-13T10:59:41;2.80;;;1.83;;
7444;SDS011;3764;48.126;11.594;2023-07-13T11:02:15;5.13;;;2.30;;
7444;SDS011;3764;48.126;11.594;2023-07-13T11:04:49;2.20;;;1.90;;
7444;SDS011;3764;48.126;11.594;2023-07-13T11:07:21;2.57;;;2.20;;
7444;SDS011;3764;48.126;11.594;2023-07-13T11:09:50;2.53;;;1.60;;
7444;SDS011;3764;48.126;11.594;2023-07-13T11:12:33;2.67;;;2.47;;
7444;SDS011;3764;48.126;11.594;2023-07-13T11:15:27;3.10;;;2.37;;
7444;SDS011;3764;48.126;11.594;2023-07-13T11:18:19;2.30;;;2.00;;
7444;SDS011;3764;48.126;11.594;2023-07-13T11:20:48;4.40;;;2.20;;
7444;SDS011;3764;48.126;11.594;2023-07-13T11:23:20;3.00;;;1.90;;
7444;SDS011;3764;48.126;11.594;2023-07-13T11:25:56;3.10;;;2.13;;
7444;SDS011;3764;48.126;11.594;2023-07-13T11:28:27;4.47;;;2.53;;
7444;SDS011;3764;48.126;11.594;2023-07-13T11:31:00;2.87;;;2.13;;
7444;SDS011;3764;48.126;11.594;2023-07-13T11:33:44;4.00;;;2.40;;
7444;SDS011;3764;48.126;11.594;2023-07-13T11:36:18;5.53;;;2.20;;
7444;SDS011;3764;48.126;11.594;2023-07-13T11:38:50;5.07;;;2.87;;
7444;SDS011;3764;48.126;11.594;2023-07-13T11:41:25;6.07;;;3.40;;
7444;SDS011;3764;48.126;11.594;2023-07-13T11:44:05;3.03;;;2.57;;
7444;SDS011;3764;48.126;11.594;2023-07-13T11:46:34;6.57;;;2.70;;
7444;SDS011;3764;48.126;11.594;2023-07-13T11:49:01;7.83;;;2.70;;
7444;SDS011;3764;48.126;11.594;2023-07-13T11:51:32;2.67;;;2.27;;
7444;SDS011;3764;48.126;11.594;2023-07-13T11:54:03;3.57;;;2.50;;
7444;SDS011;3764;48.126;11.594;2023-07-13T11:56:32;4.43;;;2.47;;
7444;SDS011;3764;48.126;11.594;2023-07-13T11:59:03;3.10;;;1.83;;
7444;SDS011;3764;48.126;11.594;2023-07-13T12:01:34;6.97;;;2.50;;
7444;SDS011;3764;48.126;11.594;2023-07-13T12:04:08;5.23;;;2.27;;
7444;SDS011;3764;48.126;11.594;2023-07-13T12:06:46;3.40;;;1.90;;
7444;SDS011;3764;48.126;11.594;2023-07-13T12:09:21;2.40;;;2.07;;
7444;SDS011;3764;48.126;11.594;2023-07-13T12:11:50;8.87;;;2.37;;
7444;SDS011;3764;48.126;11.594;2023-07-13T12:14:19;5.40;;;2.60;;
7444;SDS011;3764;48.126;11.594;2023-07-13T12:16:50;2.57;;;1.90;;
7444;SDS011;3764;48.126;11.594;2023-07-13T12:19:17;4.77;;;1.90;;
7444;SDS011;3764;48.126;11.594;2023-07-13T12:21:47;4.53;;;1.90;;
7444;SDS011;3764;48.126;11.594;2023-07-13T12:24:15;2.93;;;1.80;;
7444;SDS011;3764;48.126;11.594;2023-07-13T12:26:44;2.60;;;2.10;;
7444;SDS011;3764;48.126;11.594;2023-07-13T12:29:17;3.67;;;2.47;;
7444;SDS011;3764;48.126;11.594;2023-07-13T12:31:46;4.10;;;2.20;;
7444;SDS011;3764;48.126;11.594;2023-07-13T12:34:21;2.47;;;1.80;;
7444;SDS011;3764;48.126;11.594;2023-07-13T12:36:51;2.63;;;1.93;;
7444;SDS011;3764;48.126;11.594;2023-07-13T12:39:20;7.60;;;3.77;;
7444;SDS011;3764;48.126;11.594;2023-07-13T12:41:51;4.70;;;2.33;;
7444;SDS011;3764;48.126;11.594;2023-07-13T12:44:23;3.23;;;2.60;;
7444;SDS011;3764;48.126;11.594;2023-07-13T12:46:56;7.03;;;2.40;;
7444;SDS011;3764;48.126;11.594;2023-07-13T12:49:26;3.17;;;2.53;;
7444;SDS011;3764;48.126;11.594;2023-07-13T12:51:59;2.87;;;2.27;;
7444;SDS011;3764;48.126;11.594;2023-07-13T12:54:27;2.60;;;2.30;;
7444;SDS011;3764;48.126;11.594;2023-07-13T12:56:56;2.27;;;2.03;;
7444;SDS011;3764;48.126;11.594;2023-07-13T12:59:29;7.83;;;2.67;;
7444;SDS011;3764;48.126;11.594;2023-07-13T13:01:58;4.83;;;3.00;;
7444;SDS011;3764;48.126;11.594;2023-07-13T13:04:27;5.50;;;2.50;;
7444;SDS011;3764;48.126;11.594;2023-07-13T13:07:02;2.70;;;2.03;;
7444;SDS011;3764;48.126;11.594;2023-07-13T13:09:32;2.70;;;2.10;;
7444;SDS011;3764;48.126;11.594;2023-07-13T13:11:59;2.50;;;2.30;;
7444;SDS011;3764;48.126;11.594;2023-07-13T13:14:27;3.30;;;2.40;;
7444;SDS011;3764;48.126;11.594;2023-07-13T13:16:55;5.30;;;2.37;;
7444;SDS011;3764;48.126;11.594;2023-07-13T13:19:23;2.93;;;2.07;;
7444;SDS011;3764;48.126;11.594;2023-07-13T13:21:52;2.40;;;2.20;;
7444;SDS011;3764;48.126;11.594;2023-07-13T13:24:22;4.00;;;2.23;;
7444;SDS011;3764;48.126;11.594;2023-07-13T13:26:51;4.47;;;3.53;;
7444;SDS011;3764;48.126;11.594;2023-07-13T13:29:22;6.90;;;3.70;;
7444;SDS011;3764;48.126;11.594;2023-07-13T13:31:52;5.63;;;2.70;;
7444;SDS011;3764;48.126;11.594;2023-07-13T13:34:20;3.40;;;2.33;;
7444;SDS011;3764;48.126;11.594;2023-07-13T13:36:49;2.13;;;1.80;;
7444;SDS011;3764;48.126;11.594;2023-07-13T13:39:21;2.83;;;2.33;;
7444;SDS011;3764;48.126;11.594;2023-07-13T13:41:50;4.50;;;2.60;;
7444;SDS011;3764;48.126;11.594;2023-07-13T13:44:18;2.40;;;2.03;;
7444;SDS011;3764;48.126;11.594;2023-07-13T13:46:47;3.53;;;2.07;;
7444;SDS011;3764;48.126;11.594;2023-07-13T13:49:17;2.70;;;2.10;;
7444;SDS011;3764;48.126;11.594;2023-07-13T13:51:47;8.13;;;5.07;;
7444;SDS011;3764;48.126;11.594;2023-07-13T13:54:16;3.83;;;2.03;;
7444;SDS011;3764;48.126;11.594;2023-07-13T13:56:45;3.00;;;2.10;;
7444;SDS011;3764;48.126;11.594;2023-07-13T13:59:13;2.70;;;2.00;;
7444;SDS011;3764;48.126;11.594;2023-07-13T14:01:41;3.53;;;1.77;;
7444;SDS011;3764;48.126;11.594;2023-07-13T14:04:10;2.60;;;2.00;;
7444;SDS011;3764;48.126;11.594;2023-07-13T14:06:44;2.70;;;2.20;;
7444;SDS011;3764;48.126;11.594;2023-07-13T14:09:12;5.33;;;2.43;;
7444;SDS011;3764;48.126;11.594;2023-07-13T14:11:43;3.63;;;2.07;;
7444;SDS011;3764;48.126;11.594;2023-07-13T14:14:12;4.60;;;2.53;;
7444;SDS011;3764;48.126;11.594;2023-07-13T14:16:43;2.20;;;1.87;;
7444;SDS011;3764;48.126;11.594;2023-07-13T14:19:12;2.33;;;2.13;;
7444;SDS011;3764;48.126;11.594;2023-07-13T14:21:40;4.67;;;2.80;;
7444;SDS011;3764;48.126;11.594;2023-07-13T14:24:08;3.23;;;2.13;;
7444;SDS011;3764;48.126;11.594;2023-07-13T14:26:36;3.53;;;2.67;;
7444;SDS011;3764;48.126;11.594;2023-07-13T14:29:10;6.50;;;2.20;;
7444;SDS011;3764;48.126;11.594;2023-07-13T14:31:40;2.70;;;1.90;;
7444;SDS011;3764;48.126;11.594;2023-07-13T14:34:07;2.83;;;2.20;;
7444;SDS011;3764;48.126;11.594;2023-07-13T14:36:36;2.30;;;2.00;;
7444;SDS011;3764;48.126;11.594;2023-07-13T14:39:11;3.20;;;1.83;;
7444;SDS011;3764;48.126;11.594;2023-07-13T14:41:40;3.03;;;2.30;;
7444;SDS011;3764;48.126;11.594;2023-07-13T14:44:11;2.80;;;1.97;;
7444;SDS011;3764;48.126;11.594;2023-07-13T14:46:39;2.63;;;2.10;;
7444;SDS011;3764;48.126;11.594;2023-07-13T14:49:07;3.50;;;2.17;;
7444;SDS011;3764;48.126;11.594;2023-07-13T14:51:41;8.17;;;6.83;;
7444;SDS011;3764;48.126;11.594;2023-07-13T14:54:08;3.90;;;3.60;;
7444;SDS011;3764;48.126;11.594;2023-07-13T14:56:37;4.53;;;2.40;;
7444;SDS011;3764;48.126;11.594;2023-07-13T14:59:05;4.37;;;2.30;;
7444;SDS011;3764;48.126;11.594;2023-07-13T15:01:32;3.80;;;2.40;;
7444;SDS011;3764;48.126;11.594;2023-07-13T15:04:00;2.83;;;2.10;;
7444;SDS011;3764;48.126;11.594;2023-07-13T15:06:27;3.40;;;1.70;;
7444;SDS011;3764;48.126;11.594;2023-07-13T15:08:56;3.47;;;2.57;;
7444;SDS011;3764;48.126;11.594;2023-07-13T15:11:25;2.93;;;2.10;;
7444;SDS011;3764;48.126;11.594;2023-07-13T15:13:52;2.50;;;2.10;;